createdAt,value
2022-08-11T00:00:09.145Z,101054.19
2022-08-11T00:02:46.616Z,101046.66
2022-08-11T00:05:17.218Z,101049.47
2022-08-11T00:07:48.150Z,101047.50
2022-08-11T00:10:18.679Z,101044.72
2022-08-11T00:13:02.579Z,101042.38
2022-08-11T00:15:44.251Z,101042.41
2022-08-11T00:18:13.197Z,101030.53
2022-08-11T00:20:45.701Z,101034.50
2022-08-11T00:23:18.476Z,101037.72
2022-08-11T00:25:50.941Z,101038.13
2022-08-11T00:28:28.970Z,101029.41
2022-08-11T00:30:59.612Z,101031.81
2022-08-11T00:33:41.346Z,101029.81
2022-08-11T00:36:16.235Z,101025.84
2022-08-11T00:38:46.153Z,101029.84
2022-08-11T00:41:34.778Z,101026.31
2022-08-11T00:44:28.929Z,101025.09
2022-08-11T00:47:04.970Z,101021.97
2022-08-11T00:49:50.773Z,101017.59
2022-08-11T00:52:44.921Z,101016.81
2022-08-11T00:55:20.950Z,101012.47
2022-08-11T00:58:21.846Z,101014.06
2022-08-11T01:01:14.249Z,101008.91
2022-08-11T01:04:17.616Z,101012.50
2022-08-11T01:06:50.672Z,101008.53
2022-08-11T01:09:35.787Z,101014.09
2022-08-11T01:12:29.382Z,101011.31
2022-08-11T01:15:24.424Z,101019.25
2022-08-11T01:18:10.232Z,101014.44
2022-08-11T01:20:59.122Z,101007.66
2022-08-11T01:24:00.099Z,101015.56
2022-08-11T01:27:04.617Z,101022.34
2022-08-11T01:30:20.979Z,101006.88
2022-08-11T01:33:05.224Z,101002.91
2022-08-11T01:35:41.852Z,101006.88
2022-08-11T01:38:46.444Z,101004.50
2022-08-11T01:41:53.130Z,101004.50
2022-08-11T01:44:48.106Z,100998.56
2022-08-11T01:47:52.619Z,100995.78
2022-08-11T01:50:39.295Z,100997.38
2022-08-11T01:53:47.198Z,101004.16
2022-08-11T01:56:36.051Z,100995.81
2022-08-11T01:59:29.006Z,100994.25
2022-08-11T02:02:48.263Z,100989.47
2022-08-11T02:05:46.196Z,100996.63
2022-08-11T02:08:34.948Z,100995.44
2022-08-11T02:11:21.102Z,100987.91
2022-08-11T02:14:01.072Z,100994.25
2022-08-11T02:16:55.642Z,100987.91
2022-08-11T02:19:55.444Z,100988.69
2022-08-11T02:22:50.187Z,100999.81
2022-08-11T02:25:29.274Z,100997.03
2022-08-11T02:28:19.351Z,100997.84
2022-08-11T02:32:15.897Z,100988.72
2022-08-11T02:34:19.600Z,100989.91
2022-08-11T02:36:59.514Z,100993.44
2022-08-11T02:39:39.690Z,100991.06
2022-08-11T02:42:33.423Z,100986.31
2022-08-11T02:45:06.231Z,100980.34
2022-08-11T02:48:21.173Z,100984.31
2022-08-11T02:50:49.579Z,100980.72
2022-08-11T02:53:44.182Z,100973.56
2022-08-11T02:56:32.099Z,100973.97
2022-08-11T02:59:30.135Z,100970.41
2022-08-11T03:02:17.324Z,100973.56
2022-08-11T03:04:59.231Z,100971.53
2022-08-11T03:07:28.609Z,100964.78
2022-08-11T03:10:06.191Z,100968.69
2022-08-11T03:13:21.024Z,100970.25
2022-08-11T03:16:45.933Z,100962.25
2022-08-11T03:19:19.059Z,100964.63
2022-08-11T03:22:17.228Z,100968.59
2022-08-11T03:24:51.870Z,100964.63
2022-08-11T03:27:39.692Z,100970.53
2022-08-11T03:30:16.381Z,100963.78
2022-08-11T03:33:49.408Z,100969.28
2022-08-11T03:37:15.432Z,100983.59
2022-08-11T03:39:57.022Z,100967.25
2022-08-11T03:42:27.454Z,100969.25
2022-08-11T03:45:15.722Z,100971.63
2022-08-11T03:47:52.611Z,100967.22
2022-08-11T03:51:03.166Z,100967.63
2022-08-11T03:53:58.234Z,100969.63
2022-08-11T03:57:03.572Z,100976.31
2022-08-11T04:00:12.844Z,100984.59
2022-08-11T04:03:10.553Z,100977.81
2022-08-11T04:05:40.760Z,100977.78
2022-08-11T04:08:34.132Z,100983.72
2022-08-11T04:11:22.920Z,100987.69
2022-08-11T04:14:30.791Z,100987.28
2022-08-11T04:17:07.306Z,100994.06
2022-08-11T04:19:53.381Z,100994.47
2022-08-11T04:22:35.331Z,100999.22
2022-08-11T04:25:22.792Z,101004.00
2022-08-11T04:28:29.038Z,101006.78
2022-08-11T04:31:48.857Z,101007.22
2022-08-11T04:34:18.053Z,101009.59
2022-08-11T04:37:22.449Z,101013.59
2022-08-11T04:40:19.736Z,101019.97
2022-08-11T04:43:14.498Z,101022.31
2022-08-11T04:46:19.364Z,101023.50
2022-08-11T04:49:35.969Z,101022.31
2022-08-11T04:52:35.997Z,101018.84
2022-08-11T04:56:03.202Z,101028.03
2022-08-11T04:58:58.167Z,101031.28
2022-08-11T05:01:55.781Z,101029.75
2022-08-11T05:04:47.448Z,101034.13
2022-08-11T05:07:53.809Z,101039.31
2022-08-11T05:10:45.892Z,101035.47
2022-08-11T05:13:45.850Z,101034.75
2022-08-11T05:16:34.939Z,101035.22
2022-08-11T05:19:22.511Z,101039.66
2022-08-11T05:22:17.291Z,101046.44
2022-08-11T05:25:11.046Z,101048.13
2022-08-11T05:28:12.362Z,101051.84
2022-08-11T05:31:02.024Z,101048.09
2022-08-11T05:34:05.985Z,101052.06
2022-08-11T05:36:51.028Z,101052.50
2022-08-11T05:39:41.582Z,101052.19
2022-08-11T05:42:30.165Z,101055.75
2022-08-11T05:46:04.054Z,101053.38
2022-08-11T05:48:55.461Z,101054.28
2022-08-11T05:51:55.473Z,101052.38
2022-08-11T05:54:46.925Z,101054.47
2022-08-11T05:57:48.687Z,101057.09
2022-08-11T06:00:16.096Z,101048.13
2022-08-11T06:02:49.557Z,101048.59
2022-08-11T06:05:19.654Z,101060.16
2022-08-11T06:07:50.069Z,101063.09
2022-08-11T06:10:33.641Z,101055.25
2022-08-11T06:13:02.160Z,101060.78
2022-08-11T06:15:32.295Z,101057.69
2022-08-11T06:18:01.581Z,101063.09
2022-08-11T06:20:36.738Z,101069.94
2022-08-11T06:23:06.954Z,101073.84
2022-08-11T06:25:36.091Z,101079.50
2022-08-11T06:28:06.871Z,101069.03
2022-08-11T06:30:45.159Z,101074.03
2022-08-11T06:33:30.712Z,101082.88
2022-08-11T06:36:07.743Z,101082.47
2022-08-11T06:38:50.011Z,101087.81
2022-08-11T06:41:32.089Z,101088.94
2022-08-11T06:44:14.791Z,101090.25
2022-08-11T06:46:54.852Z,101101.25
2022-08-11T06:49:54.106Z,101106.88
2022-08-11T06:52:35.864Z,101110.28
2022-08-11T06:55:55.832Z,101107.81
2022-08-11T06:58:18.250Z,101108.41
2022-08-11T07:00:48.490Z,101109.47
2022-08-11T07:03:20.708Z,101110.41
2022-08-11T07:05:54.307Z,101111.16
2022-08-11T07:09:21.464Z,101110.94
2022-08-11T07:11:57.371Z,101113.16
2022-08-11T07:14:46.685Z,101110.38
2022-08-11T07:17:22.176Z,101118.72
2022-08-11T07:20:32.532Z,101111.19
2022-08-11T07:23:21.934Z,101105.91
2022-08-11T07:26:12.954Z,101104.63
2022-08-11T07:28:58.180Z,101101.59
2022-08-11T07:31:40.878Z,101116.72
2022-08-11T07:34:20.989Z,101112.78
2022-08-11T07:36:57.040Z,101111.41
2022-08-11T07:39:31.890Z,101108.19
2022-08-11T07:42:05.258Z,101107.06
2022-08-11T07:44:52.956Z,101108.78
2022-08-11T07:47:40.882Z,101104.91
2022-08-11T07:50:28.488Z,101094.59
2022-08-11T07:52:58.238Z,101111.03
2022-08-11T07:55:49.107Z,101106.09
2022-08-11T07:58:45.146Z,101103.34
2022-08-11T08:01:43.442Z,101118.06
2022-08-11T08:04:33.535Z,101107.19
2022-08-11T08:07:22.280Z,101109.00
2022-08-11T08:10:09.993Z,101117.13
2022-08-11T08:13:00.506Z,101126.50
2022-08-11T08:15:47.307Z,101116.13
2022-08-11T08:18:26.788Z,101102.69
2022-08-11T08:20:56.926Z,101105.63
2022-08-11T08:23:33.886Z,101105.06
2022-08-11T08:26:04.768Z,101109.44
2022-08-11T08:28:34.163Z,101105.84
2022-08-11T08:31:01.451Z,101108.53
2022-08-11T08:33:31.553Z,101114.22
2022-08-11T08:36:12.402Z,101122.91
2022-08-11T08:38:47.230Z,101114.13
2022-08-11T08:41:19.979Z,101109.53
2022-08-11T08:43:52.002Z,101117.19
2022-08-11T08:46:37.447Z,101117.63
2022-08-11T08:49:05.802Z,101113.56
2022-08-11T08:51:58.805Z,101121.22
2022-08-11T08:54:30.694Z,101121.91
2022-08-11T08:56:58.829Z,101119.53
2022-08-11T08:59:47.645Z,101121.03
2022-08-11T09:02:16.608Z,101114.19
2022-08-11T09:04:46.614Z,101119.84
2022-08-11T09:07:17.525Z,101116.16
2022-08-11T09:09:53.880Z,101114.84
2022-08-11T09:12:35.684Z,101108.19
2022-08-11T09:15:09.355Z,101120.03
2022-08-11T09:17:43.889Z,101116.88
2022-08-11T09:20:22.110Z,101110.28
2022-08-11T09:24:06.609Z,101113.09
2022-08-11T09:26:32.793Z,101104.31
2022-08-11T09:29:01.442Z,101115.03
2022-08-11T09:31:38.952Z,101104.50
2022-08-11T09:34:08.756Z,101107.09
2022-08-11T09:36:54.799Z,101109.94
2022-08-11T09:39:41.213Z,101114.00
2022-08-11T09:42:11.366Z,101112.28
2022-08-11T09:44:50.894Z,101120.00
2022-08-11T09:47:30.051Z,101108.13
2022-08-11T09:50:00.868Z,101105.59
2022-08-11T09:52:31.141Z,101114.72
2022-08-11T09:54:59.229Z,101107.72
2022-08-11T09:57:44.861Z,101106.81
2022-08-11T10:00:15.472Z,101095.53
2022-08-11T10:02:50.628Z,101097.78
2022-08-11T10:05:38.265Z,101093.34
2022-08-11T10:08:09.592Z,101100.13
2022-08-11T10:10:39.390Z,101094.38
2022-08-11T10:14:31.006Z,101095.75
2022-08-11T10:16:15.826Z,101092.81
2022-08-11T10:18:53.032Z,101095.56
2022-08-11T10:21:36.844Z,101090.28
2022-08-11T10:24:25.722Z,101096.25
2022-08-11T10:26:55.012Z,101084.81
2022-08-11T10:29:49.862Z,101080.00
2022-08-11T10:33:04.364Z,101063.91
2022-08-11T10:35:38.043Z,101064.38
2022-08-11T10:38:09.728Z,101064.00
2022-08-11T10:40:42.057Z,101063.41
2022-08-11T10:43:14.486Z,101069.66
2022-08-11T10:46:25.743Z,101064.31
2022-08-11T10:48:59.382Z,101061.44
2022-08-11T10:51:51.212Z,101069.34
2022-08-11T10:54:39.792Z,101075.47
2022-08-11T10:57:25.896Z,101069.00
2022-08-11T10:59:56.725Z,101069.66
2022-08-11T11:02:27.414Z,101059.28
2022-08-11T11:05:04.589Z,101050.84
2022-08-11T11:07:44.000Z,101050.25
2022-08-11T11:10:11.952Z,101042.59
2022-08-11T11:13:06.392Z,101038.31
2022-08-11T11:15:55.741Z,101038.97
2022-08-11T11:18:26.393Z,101035.00
2022-08-11T11:21:09.768Z,101032.44
2022-08-11T11:24:01.458Z,101037.78
2022-08-11T11:26:56.206Z,101036.34
2022-08-11T11:30:06.526Z,101040.19
2022-08-11T11:33:11.849Z,101034.50
2022-08-11T11:36:32.739Z,101038.16
2022-08-11T11:39:01.925Z,101020.22
2022-08-11T11:41:29.787Z,101022.53
2022-08-11T11:43:58.355Z,101019.50
2022-08-11T11:46:30.906Z,101026.66
2022-08-11T11:49:00.566Z,101027.97
2022-08-11T11:51:28.316Z,101038.78
2022-08-11T11:53:55.768Z,101032.63
2022-08-11T11:56:26.178Z,101035.22
2022-08-11T11:59:14.664Z,101032.91
2022-08-11T12:01:50.204Z,101036.69
2022-08-11T12:04:20.626Z,101039.75
2022-08-11T12:06:48.727Z,101031.25
2022-08-11T12:09:18.691Z,101030.94
2022-08-11T12:12:04.366Z,101029.72
2022-08-11T12:14:31.880Z,101026.19
2022-08-11T12:16:59.833Z,101030.00
2022-08-11T12:19:29.168Z,101029.94
2022-08-11T12:22:22.028Z,101036.81
2022-08-11T12:25:08.161Z,101034.00
2022-08-11T12:27:38.898Z,101044.44
2022-08-11T12:30:08.696Z,101032.34
2022-08-11T12:32:39.475Z,101039.81
2022-08-11T12:35:07.755Z,101041.34
2022-08-11T12:37:45.457Z,101040.47
2022-08-11T12:41:11.907Z,101038.78
2022-08-11T12:43:56.863Z,101051.09
2022-08-11T12:46:29.515Z,101045.22
2022-08-11T12:49:20.222Z,101042.22
2022-08-11T12:52:11.502Z,101039.25
2022-08-11T12:55:00.223Z,101032.75
2022-08-11T12:57:54.623Z,101020.78
2022-08-11T13:00:41.347Z,101020.31
2022-08-11T13:03:30.314Z,101017.25
2022-08-11T13:06:04.390Z,101020.09
2022-08-11T13:08:35.776Z,101029.31
2022-08-11T13:11:23.106Z,101034.63
2022-08-11T13:13:57.045Z,101035.88
2022-08-11T13:16:56.501Z,101025.44
2022-08-11T13:19:24.389Z,101010.75
2022-08-11T13:21:53.420Z,101009.50
2022-08-11T13:24:22.088Z,101000.72
2022-08-11T13:26:51.052Z,100997.50
2022-08-11T13:29:23.708Z,100986.72
2022-08-11T13:31:51.973Z,100980.78
2022-08-11T13:34:20.847Z,100993.25
2022-08-11T13:36:54.797Z,100987.72
2022-08-11T13:39:25.304Z,100975.78
2022-08-11T13:41:59.729Z,100975.34
2022-08-11T13:44:31.256Z,100969.41
2022-08-11T13:47:02.122Z,100965.38
2022-08-11T13:49:31.351Z,100974.88
2022-08-11T13:51:59.414Z,100983.63
2022-08-11T13:54:30.364Z,100989.16
2022-08-11T13:57:03.452Z,100992.25
2022-08-11T13:59:51.769Z,100989.75
2022-08-11T14:02:29.428Z,100994.91
2022-08-11T14:05:20.278Z,100987.69
2022-08-11T14:07:53.938Z,100986.88
2022-08-11T14:10:24.933Z,100987.31
2022-08-11T14:13:19.029Z,100982.84
2022-08-11T14:15:48.944Z,100978.78
2022-08-11T14:18:22.860Z,100978.28
2022-08-11T14:21:14.001Z,100973.88
2022-08-11T14:23:43.928Z,100973.53
2022-08-11T14:26:38.510Z,100972.00
2022-08-11T14:29:14.983Z,100959.41
2022-08-11T14:31:53.070Z,100953.47
2022-08-11T14:34:23.170Z,100955.13
2022-08-11T14:36:57.276Z,100944.84
2022-08-11T14:39:36.193Z,100945.28
2022-08-11T14:42:24.221Z,100953.28
2022-08-11T14:45:57.562Z,100949.75
2022-08-11T14:48:18.371Z,100956.56
2022-08-11T14:50:47.255Z,100959.72
2022-08-11T14:53:17.841Z,100951.75
2022-08-11T14:56:05.294Z,100943.81
2022-08-11T14:58:34.090Z,100944.97
2022-08-11T15:01:03.585Z,100949.31
2022-08-11T15:03:33.919Z,100958.19
2022-08-11T15:06:03.823Z,100958.94
2022-08-11T15:08:54.895Z,100965.38
2022-08-11T15:11:48.192Z,100963.88
2022-08-11T15:14:39.578Z,100960.63
2022-08-11T15:17:09.914Z,100963.38
2022-08-11T15:20:04.798Z,100969.47
2022-08-11T15:22:50.638Z,100971.84
2022-08-11T15:25:20.162Z,100967.50
2022-08-11T15:28:08.652Z,100964.69
2022-08-11T15:30:55.986Z,100966.63
2022-08-11T15:54:29.170Z,100949.03
2022-08-11T15:56:58.891Z,100943.38
2022-08-11T15:59:47.027Z,100951.41
2022-08-11T16:02:36.411Z,100951.91
2022-08-11T16:05:08.747Z,100949.53
2022-08-11T16:07:40.816Z,100948.72
2022-08-11T16:10:19.673Z,100941.09
2022-08-11T16:13:21.896Z,100938.72
2022-08-11T16:16:14.216Z,100940.28
2022-08-11T16:18:51.743Z,100938.69
2022-08-11T16:21:36.130Z,100947.88
2022-08-11T16:24:07.951Z,100942.31
2022-08-11T16:27:10.019Z,100930.31
2022-08-11T16:29:28.839Z,100932.34
2022-08-11T16:32:15.779Z,100921.16
2022-08-11T16:35:08.338Z,100906.38
2022-08-11T16:37:56.433Z,100911.13
2022-08-11T16:40:24.573Z,100903.16
2022-08-11T16:43:12.671Z,100915.56
2022-08-11T16:46:00.568Z,100915.25
2022-08-11T16:48:37.509Z,100923.66
2022-08-11T16:51:07.480Z,100921.72
2022-08-11T16:53:45.977Z,100926.06
2022-08-11T16:56:28.601Z,100913.63
2022-08-11T16:59:16.736Z,100917.56
2022-08-11T17:02:00.039Z,100908.84
2022-08-11T17:05:09.450Z,100906.78
2022-08-11T17:08:01.165Z,100915.94
2022-08-11T17:10:56.667Z,100906.06
2022-08-11T17:14:03.238Z,100919.22
2022-08-11T17:16:37.835Z,100922.09
2022-08-11T17:19:20.430Z,100932.44
2022-08-11T17:22:26.214Z,100926.84
2022-08-11T17:24:55.737Z,100925.31
2022-08-11T17:27:24.737Z,100921.75
2022-08-11T17:30:04.725Z,100912.16
2022-08-11T17:32:56.792Z,100923.34
2022-08-11T17:35:32.959Z,100919.81
2022-08-11T17:38:05.850Z,100927.41
2022-08-11T17:40:39.017Z,100915.47
2022-08-11T17:43:29.174Z,100924.28
2022-08-11T17:46:15.942Z,100917.94
2022-08-11T17:48:47.825Z,100917.19
2022-08-11T17:51:38.330Z,100926.75
2022-08-11T17:54:26.051Z,100923.63
2022-08-11T17:57:20.496Z,100922.84
2022-08-11T17:59:53.990Z,100918.88
2022-08-11T18:02:52.645Z,100928.84
2022-08-11T18:05:22.097Z,100936.03
2022-08-11T18:08:10.390Z,100938.06
2022-08-11T18:10:59.126Z,100944.03
2022-08-11T18:13:47.661Z,100944.84
2022-08-11T18:16:33.387Z,100949.28
2022-08-11T18:19:19.506Z,100944.91
2022-08-11T18:22:15.570Z,100944.91
2022-08-11T18:25:13.312Z,100950.50
2022-08-11T18:28:02.609Z,100953.72
2022-08-11T18:30:54.612Z,100959.69
2022-08-11T18:34:09.266Z,100953.72
2022-08-11T18:37:29.027Z,100964.09
2022-08-11T18:40:29.883Z,100968.91
2022-08-11T18:43:25.022Z,100965.69
2022-08-11T18:46:20.298Z,100965.69
2022-08-11T18:49:15.599Z,100974.06
2022-08-11T18:52:06.509Z,100972.50
2022-08-11T18:54:55.440Z,100986.03
2022-08-11T18:57:49.647Z,100986.84
2022-08-11T19:00:44.100Z,100971.31
2022-08-11T19:03:43.447Z,100975.69
2022-08-11T19:06:41.546Z,100977.69
2022-08-11T19:09:35.678Z,100975.28
2022-08-11T19:12:22.682Z,100973.31
2022-08-11T19:15:11.219Z,100978.09
2022-08-11T19:18:01.242Z,100981.69
2022-08-11T19:20:49.918Z,100976.94
2022-08-11T19:23:40.203Z,100979.69
2022-08-11T19:26:27.365Z,100985.28
2022-08-11T19:30:05.048Z,100982.09
2022-08-11T19:32:21.247Z,100979.69
2022-08-11T19:35:07.812Z,100978.50
2022-08-11T19:37:54.847Z,100987.28
2022-08-11T19:40:41.396Z,100986.06
2022-08-11T19:43:28.600Z,100988.88
2022-08-11T19:46:17.822Z,100981.31
2022-08-11T19:49:08.530Z,100977.69
2022-08-11T19:51:56.246Z,100987.25
2022-08-11T19:54:47.240Z,100984.84
2022-08-11T19:57:39.382Z,100985.25
2022-08-11T20:00:32.027Z,100993.59
2022-08-11T20:03:19.586Z,100985.66
2022-08-11T20:06:07.383Z,100988.81
2022-08-11T20:08:58.530Z,100995.94
2022-08-11T20:11:50.564Z,100986.00
2022-08-11T20:14:38.248Z,100996.38
2022-08-11T20:17:26.408Z,101001.16
2022-08-11T20:20:12.618Z,100990.78
2022-08-11T20:23:00.058Z,100978.06
2022-08-11T20:25:46.588Z,100987.22
2022-08-11T20:28:35.718Z,100994.38
2022-08-11T20:31:24.462Z,100987.22
2022-08-11T20:34:10.608Z,100991.59
2022-08-11T20:36:58.190Z,100984.84
2022-08-11T20:39:44.752Z,100988.44
2022-08-11T20:42:32.162Z,100987.63
2022-08-11T20:45:23.414Z,100987.63
2022-08-11T20:48:15.392Z,100982.06
2022-08-11T20:51:07.310Z,100989.22
2022-08-11T20:54:05.698Z,100991.59
2022-08-11T20:56:54.558Z,100989.22
2022-08-11T20:59:56.394Z,100980.44
2022-08-11T21:02:45.003Z,100984.81
2022-08-11T21:06:09.857Z,100982.03
2022-08-11T21:08:45.700Z,100990.00
2022-08-11T21:11:33.766Z,100992.38
2022-08-11T21:14:21.906Z,100994.38
2022-08-11T21:17:27.467Z,100998.34
2022-08-11T21:20:21.631Z,100999.16
2022-08-11T21:23:18.459Z,100990.78
2022-08-11T21:26:21.189Z,100995.16
2022-08-11T21:29:09.415Z,100997.94
2022-08-11T21:31:55.702Z,100990.78
2022-08-11T21:34:43.892Z,100997.13
2022-08-11T21:37:31.298Z,100999.94
2022-08-11T21:40:19.100Z,101000.31
2022-08-11T21:43:06.743Z,100990.78
2022-08-11T21:45:55.786Z,100998.31
2022-08-11T21:48:44.022Z,100997.50
2022-08-11T21:51:30.211Z,100990.72
2022-08-11T21:54:18.265Z,100985.16
2022-08-11T21:57:05.899Z,100987.09
2022-08-11T22:00:12.692Z,100985.91
2022-08-11T22:02:59.386Z,100991.47
2022-08-11T22:05:47.444Z,100995.44
2022-08-11T22:08:33.649Z,100993.44
2022-08-11T22:11:31.737Z,100992.22
2022-08-11T22:14:22.035Z,100992.22
2022-08-11T22:17:07.991Z,100988.22
2022-08-11T22:19:56.378Z,100986.66
2022-08-11T22:22:52.242Z,101000.56
2022-08-11T22:25:55.044Z,100989.44
2022-08-11T22:28:45.415Z,100986.66
2022-08-11T22:31:31.932Z,100970.34
2022-08-11T22:34:18.144Z,100972.31
2022-08-11T22:37:06.931Z,100967.94
2022-08-11T22:40:02.079Z,100966.75
2022-08-11T22:42:48.336Z,100965.16
2022-08-11T22:45:34.374Z,100968.34
2022-08-11T22:48:23.475Z,100961.97
2022-08-11T22:51:10.163Z,100956.81
2022-08-11T22:53:59.119Z,100956.38
2022-08-11T22:56:50.407Z,100950.81
2022-08-11T22:59:38.209Z,100950.44
2022-08-11T23:02:25.830Z,100940.47
2022-08-11T23:05:12.581Z,100937.31
2022-08-11T23:08:00.062Z,100929.75
2022-08-11T23:10:46.594Z,100932.50
2022-08-11T23:13:32.833Z,100934.88
2022-08-11T23:16:18.803Z,100942.00
2022-08-11T23:19:05.269Z,100939.63
2022-08-11T23:21:51.941Z,100935.63
2022-08-11T23:24:39.417Z,100936.44
2022-08-11T23:27:27.387Z,100935.66
2022-08-11T23:30:17.100Z,100936.44
2022-08-11T23:33:10.206Z,100925.34
2022-08-11T23:36:03.533Z,100921.38
2022-08-11T23:38:52.164Z,100917.81
2022-08-11T23:41:38.233Z,100924.94
2022-08-11T23:44:25.841Z,100915.81
2022-08-11T23:47:15.295Z,100915.81
2022-08-11T23:50:01.477Z,100912.59
2022-08-11T23:52:48.946Z,100914.97
2022-08-11T23:55:38.815Z,100911.00
2022-08-11T23:58:25.364Z,100912.16
